Gilby, North Dakota
Current Conditions -  °F | °C
As of 3:58 PM on Monday 20 Oct 2014 (Local Time) from KRDR Reporting Station
Clear Clear  
Wind Chill: 60°   Ceiling: Unl
Heat Index: 60°   Visibility: 10mi
Dew Point: 43°   Wind: 1mph
Humidity: 55%   Direction: NA
Pressure: 30.03"   Gusts: NA
Location:  48.09°N, 97.47°W
Report Text: KRDR 202058Z AUTO VRB01KT 10SM CLR 15/06 A3003 RMK AO2 SLP179 T01540063 57011
Loading
Personal Weather Stations






























Interactive Weather Map
Tropical Storm Tracking
New forecast layout! Learn more

10-Day Weather Forecast

Advertisements
Track Severe Weather on mobile